createdAt,value
2022-12-31T00:01:15.750Z,99070.00
2022-12-31T00:03:42.535Z,99073.80
2022-12-31T00:06:31.180Z,99077.20
2022-12-31T00:08:59.065Z,99078.40
2022-12-31T00:11:27.148Z,99069.40
2022-12-31T00:13:54.110Z,99065.20
2022-12-31T00:16:33.038Z,99059.00
2022-12-31T00:18:59.884Z,99055.40
2022-12-31T00:21:30.352Z,99052.00
2022-12-31T00:23:57.046Z,99050.80
2022-12-31T00:26:27.826Z,99061.60
2022-12-31T00:28:55.769Z,99059.00
2022-12-31T00:31:28.994Z,99054.40
2022-12-31T00:33:56.450Z,99053.80
2022-12-31T00:36:25.684Z,99056.60
2022-12-31T00:38:53.343Z,99063.80
2022-12-31T00:41:20.695Z,99058.40
2022-12-31T00:43:47.362Z,99064.40
2022-12-31T00:46:14.603Z,99053.80
2022-12-31T00:48:41.432Z,99058.20
2022-12-31T00:51:10.602Z,99046.80
2022-12-31T00:53:37.573Z,99044.20
2022-12-31T00:56:11.829Z,99050.60
2022-12-31T00:58:38.507Z,99051.80
2022-12-31T01:01:12.256Z,99056.40
2022-12-31T01:03:38.884Z,99065.00
2022-12-31T01:06:06.018Z,99060.60
2022-12-31T01:08:32.874Z,99057.60
2022-12-31T01:11:18.711Z,99055.60
2022-12-31T01:13:52.098Z,99050.80
2022-12-31T01:16:21.927Z,99040.20
2022-12-31T01:18:48.727Z,99033.60
2022-12-31T01:21:15.748Z,99035.20
2022-12-31T01:23:42.294Z,99037.80
2022-12-31T01:26:10.684Z,99055.00
2022-12-31T01:28:37.219Z,99055.20
2022-12-31T01:31:10.128Z,99048.80
2022-12-31T01:33:37.014Z,99042.20
2022-12-31T01:36:11.578Z,99034.60
2022-12-31T01:38:38.397Z,99034.00
2022-12-31T01:41:05.192Z,99028.20
2022-12-31T01:44:10.398Z,99029.20
2022-12-31T01:46:48.987Z,99028.20
2022-12-31T01:49:32.066Z,99027.80
2022-12-31T01:52:03.892Z,99018.80
2022-12-31T01:54:31.901Z,99020.80
2022-12-31T01:56:58.394Z,99018.60
2022-12-31T01:59:26.007Z,99005.80
2022-12-31T02:01:52.728Z,99008.00
2022-12-31T02:04:21.072Z,99004.00
2022-12-31T02:06:58.245Z,98999.20
2022-12-31T02:09:24.970Z,98995.80
2022-12-31T02:11:51.460Z,98998.00
2022-12-31T02:14:39.692Z,98994.00
2022-12-31T02:17:51.742Z,98991.60
2022-12-31T02:20:42.425Z,98995.20
2022-12-31T02:23:52.623Z,98986.20
2022-12-31T02:26:53.572Z,98980.80
2022-12-31T02:29:50.117Z,98978.00
2022-12-31T02:32:46.791Z,98975.00
2022-12-31T02:35:21.346Z,98964.40
2022-12-31T02:37:51.071Z,98975.00
2022-12-31T02:40:19.424Z,98981.20
2022-12-31T02:42:51.522Z,98980.00
2022-12-31T02:45:27.689Z,98986.00
2022-12-31T02:48:33.760Z,98974.00
2022-12-31T02:51:17.699Z,98983.00
2022-12-31T02:54:19.299Z,98982.40
2022-12-31T02:56:55.106Z,98986.20
2022-12-31T02:59:46.804Z,98989.20
2022-12-31T03:02:16.394Z,98976.60
2022-12-31T03:04:51.990Z,98979.20
2022-12-31T03:07:29.931Z,98989.00
2022-12-31T03:09:56.873Z,98979.60
2022-12-31T03:12:45.069Z,98987.80
2022-12-31T03:15:32.145Z,98990.80
2022-12-31T03:18:01.478Z,98984.80
2022-12-31T03:20:54.152Z,98980.00
2022-12-31T03:23:42.187Z,98982.00
2022-12-31T03:26:10.942Z,98986.80
2022-12-31T03:28:47.034Z,98988.60
2022-12-31T03:31:15.609Z,98984.20
2022-12-31T03:33:42.065Z,98980.60
2022-12-31T03:36:13.137Z,98989.60
2022-12-31T03:38:40.137Z,98995.60
2022-12-31T03:41:09.823Z,98993.20
2022-12-31T03:43:36.235Z,99000.40
2022-12-31T03:46:02.736Z,99004.00
2022-12-31T03:48:29.214Z,99005.60
2022-12-31T03:50:55.819Z,99006.00
2022-12-31T03:53:22.407Z,99006.00
2022-12-31T03:55:53.130Z,99013.80
2022-12-31T03:58:20.428Z,99016.20
2022-12-31T04:00:47.012Z,99008.80
2022-12-31T04:03:13.676Z,99004.80
2022-12-31T04:05:40.620Z,99007.20
2022-12-31T04:08:07.166Z,99016.60
2022-12-31T04:10:33.731Z,99015.40
2022-12-31T04:13:03.711Z,99015.60
2022-12-31T04:15:30.243Z,99011.80
2022-12-31T04:17:56.808Z,99009.00
2022-12-31T04:20:23.443Z,99015.60
2022-12-31T04:22:50.113Z,99012.80
2022-12-31T04:25:16.778Z,99026.60
2022-12-31T04:27:44.088Z,99027.40
2022-12-31T04:30:11.867Z,99032.80
2022-12-31T04:32:38.428Z,99029.80
2022-12-31T04:35:05.933Z,99033.40
2022-12-31T04:37:32.321Z,99034.20
2022-12-31T04:40:05.093Z,99041.60
2022-12-31T04:42:33.858Z,99040.80
2022-12-31T04:45:00.347Z,99046.60
2022-12-31T04:47:26.796Z,99044.80
2022-12-31T04:49:53.321Z,99056.40
2022-12-31T04:52:19.947Z,99046.20
2022-12-31T04:54:46.523Z,99043.40
2022-12-31T04:57:12.974Z,99039.20
2022-12-31T04:59:39.551Z,99033.20
2022-12-31T05:02:06.357Z,99026.40
2022-12-31T05:04:33.258Z,99033.40
2022-12-31T05:06:59.742Z,99032.20
2022-12-31T05:09:27.752Z,99032.60
2022-12-31T05:11:54.294Z,99029.20
2022-12-31T05:14:20.784Z,99018.20
2022-12-31T05:16:47.429Z,99019.40
2022-12-31T05:19:14.222Z,99023.60
2022-12-31T05:21:40.778Z,99023.00
2022-12-31T05:24:07.369Z,99017.40
2022-12-31T05:26:34.234Z,99009.80
2022-12-31T05:29:00.892Z,99020.40
2022-12-31T05:31:27.446Z,99018.00
2022-12-31T05:33:53.949Z,99028.00
2022-12-31T05:36:20.496Z,99024.20
2022-12-31T05:38:46.918Z,99029.60
2022-12-31T05:41:13.341Z,99024.60
2022-12-31T05:43:39.968Z,99025.60
2022-12-31T05:46:07.411Z,99029.00
2022-12-31T05:48:34.037Z,99027.20
2022-12-31T05:51:00.574Z,99022.80
2022-12-31T05:53:27.175Z,99023.80
2022-12-31T05:55:53.536Z,99026.40
2022-12-31T05:58:20.155Z,99025.40
2022-12-31T06:00:46.706Z,99026.60
2022-12-31T06:03:13.406Z,99027.00
2022-12-31T06:05:42.966Z,99032.80
2022-12-31T06:08:10.827Z,99038.60
2022-12-31T06:10:38.794Z,99035.60
2022-12-31T06:13:05.395Z,99032.00
2022-12-31T06:15:31.851Z,99042.80
2022-12-31T06:17:58.511Z,99042.20
2022-12-31T06:20:25.309Z,99058.80
2022-12-31T06:22:51.865Z,99050.40
2022-12-31T06:25:18.333Z,99062.20
2022-12-31T06:27:45.030Z,99061.60
2022-12-31T06:30:12.944Z,99065.40
2022-12-31T06:32:40.158Z,99068.80
2022-12-31T06:35:07.330Z,99074.80
2022-12-31T06:37:34.014Z,99072.60
2022-12-31T06:40:00.640Z,99074.20
2022-12-31T06:42:30.767Z,99074.00
2022-12-31T06:44:58.396Z,99075.40
2022-12-31T06:47:25.346Z,99069.00
2022-12-31T06:49:52.523Z,99062.20
2022-12-31T06:52:19.055Z,99056.00
2022-12-31T06:54:45.867Z,99058.60
2022-12-31T06:57:12.707Z,99060.80
2022-12-31T06:59:39.751Z,99060.80
2022-12-31T07:02:16.313Z,99069.20
2022-12-31T07:04:57.752Z,99076.40
2022-12-31T07:07:46.704Z,99081.60
2022-12-31T07:10:37.781Z,99080.00
2022-12-31T07:13:46.222Z,99081.80
2022-12-31T07:16:40.325Z,99089.00
2022-12-31T07:19:31.111Z,99092.80
2022-12-31T07:21:57.978Z,99101.20
2022-12-31T07:24:25.274Z,99101.00
2022-12-31T07:27:04.989Z,99105.60
2022-12-31T07:30:01.130Z,99096.00
2022-12-31T07:32:50.543Z,99080.40
2022-12-31T07:35:48.889Z,99085.20
2022-12-31T07:38:49.463Z,99083.40
2022-12-31T07:41:53.381Z,99076.20
2022-12-31T07:44:48.657Z,99080.60
2022-12-31T07:47:26.677Z,99083.60
2022-12-31T07:49:54.120Z,99081.00
2022-12-31T07:52:21.226Z,99083.00
2022-12-31T07:54:47.657Z,99087.60
2022-12-31T07:57:16.601Z,99087.60
2022-12-31T08:00:04.095Z,99095.40
2022-12-31T08:03:13.044Z,99098.80
2022-12-31T08:06:00.157Z,99103.20
2022-12-31T08:08:46.087Z,99108.00
2022-12-31T08:11:40.616Z,99109.80
2022-12-31T08:14:11.485Z,99111.40
2022-12-31T08:16:38.581Z,99100.20
2022-12-31T08:19:05.579Z,99106.00
2022-12-31T08:22:06.564Z,99103.80
2022-12-31T08:25:24.219Z,99099.20
2022-12-31T08:28:26.314Z,99107.60
2022-12-31T08:31:18.410Z,99116.80
2022-12-31T08:34:06.132Z,99122.80
2022-12-31T08:36:56.111Z,99125.00
2022-12-31T08:40:13.757Z,99114.80
2022-12-31T08:42:43.487Z,99113.60
2022-12-31T08:45:27.992Z,99116.00
2022-12-31T08:48:28.805Z,99115.80
2022-12-31T08:50:55.784Z,99116.20
2022-12-31T08:53:22.616Z,99118.20
2022-12-31T08:55:52.706Z,99121.60
2022-12-31T08:58:25.287Z,99118.40
2022-12-31T09:00:53.958Z,99119.60
2022-12-31T09:04:15.490Z,99118.20
2022-12-31T09:06:48.491Z,99116.00
2022-12-31T09:10:00.573Z,99120.00
2022-12-31T09:13:11.750Z,99110.00
2022-12-31T09:16:25.492Z,99113.00
2022-12-31T09:18:52.291Z,99127.00
2022-12-31T09:21:19.008Z,99115.20
2022-12-31T09:23:45.811Z,99117.40
2022-12-31T09:26:45.740Z,99118.40
2022-12-31T09:29:41.796Z,99122.00
2022-12-31T09:32:13.657Z,99125.00
2022-12-31T09:34:53.602Z,99130.00
2022-12-31T09:37:45.893Z,99122.80
2022-12-31T09:40:47.091Z,99112.80
2022-12-31T09:43:49.843Z,99117.20
2022-12-31T09:46:44.335Z,99111.80
2022-12-31T09:49:52.313Z,99111.40
2022-12-31T09:52:41.017Z,99101.40
2022-12-31T09:55:23.842Z,99101.00
2022-12-31T09:58:18.430Z,99103.60
2022-12-31T10:01:22.093Z,99107.20
2022-12-31T10:03:51.750Z,99106.20
2022-12-31T10:06:27.684Z,99099.20
2022-12-31T10:09:15.710Z,99096.60
2022-12-31T10:12:24.504Z,99102.40
2022-12-31T10:15:29.171Z,99092.60
2022-12-31T10:18:04.295Z,99100.00
2022-12-31T10:20:51.175Z,99103.60
2022-12-31T10:23:35.908Z,99096.20
2022-12-31T10:26:18.092Z,99091.00
2022-12-31T10:28:59.351Z,99084.20
2022-12-31T10:31:53.283Z,99086.20
2022-12-31T10:35:05.433Z,99073.80
2022-12-31T10:37:56.354Z,99075.20
2022-12-31T10:41:00.139Z,99062.80
2022-12-31T10:43:46.266Z,99063.80
2022-12-31T10:46:38.549Z,99076.20
2022-12-31T10:49:22.400Z,99073.00
2022-12-31T10:52:03.982Z,99064.20
2022-12-31T10:55:17.529Z,99063.00
2022-12-31T10:58:35.315Z,99056.00
2022-12-31T11:01:32.361Z,99056.60
2022-12-31T11:04:36.222Z,99065.60
2022-12-31T11:07:46.336Z,99073.80
2022-12-31T11:10:35.700Z,99059.60
2022-12-31T11:13:42.992Z,99058.60
2022-12-31T11:16:33.696Z,99047.80
2022-12-31T11:19:06.137Z,99043.20
2022-12-31T11:21:59.369Z,99040.80
2022-12-31T11:24:41.090Z,99042.20
2022-12-31T11:27:51.943Z,99046.60
2022-12-31T11:30:22.451Z,99044.20
2022-12-31T11:33:23.471Z,99039.00
2022-12-31T11:35:56.591Z,99031.20
2022-12-31T11:38:29.775Z,99025.60
2022-12-31T11:41:13.212Z,99029.60
2022-12-31T11:44:10.077Z,99023.80
2022-12-31T11:47:00.922Z,99023.80
2022-12-31T11:49:39.622Z,99025.80
2022-12-31T11:52:27.558Z,99019.80
2022-12-31T11:55:23.661Z,99011.60
2022-12-31T11:57:51.291Z,99005.20
2022-12-31T12:00:22.013Z,99010.00
2022-12-31T12:02:59.230Z,99012.60
2022-12-31T12:05:26.328Z,99015.80
2022-12-31T12:07:53.553Z,99012.40
2022-12-31T12:10:35.986Z,99009.40
2022-12-31T12:13:19.159Z,99008.20
2022-12-31T12:15:52.085Z,99013.40
2022-12-31T12:18:46.221Z,99003.40
2022-12-31T12:21:23.808Z,98995.20
2022-12-31T12:24:05.684Z,99000.20
2022-12-31T12:26:34.030Z,98996.00
2022-12-31T12:29:27.365Z,98994.20
2022-12-31T12:32:05.181Z,98993.00
2022-12-31T12:34:38.086Z,98987.00
2022-12-31T12:37:16.484Z,98985.80
2022-12-31T12:39:43.049Z,98976.40
2022-12-31T12:42:13.776Z,98985.40
2022-12-31T12:44:41.363Z,98979.60
2022-12-31T12:47:14.163Z,98972.20
2022-12-31T12:49:45.510Z,98966.20
2022-12-31T12:52:21.652Z,98968.80
2022-12-31T12:55:19.235Z,98962.20
2022-12-31T12:58:21.100Z,98968.60
2022-12-31T13:00:56.574Z,98972.80
2022-12-31T13:03:29.947Z,98977.80
2022-12-31T13:06:24.124Z,98977.00
2022-12-31T13:09:08.282Z,98972.20
2022-12-31T13:12:08.050Z,98973.80
2022-12-31T13:14:56.697Z,98970.80
2022-12-31T13:18:01.602Z,98974.00
2022-12-31T13:20:49.217Z,98970.00
2022-12-31T13:23:20.655Z,98976.20
2022-12-31T13:25:59.217Z,98982.00
2022-12-31T13:28:25.840Z,98982.00
2022-12-31T13:31:04.789Z,98984.20
2022-12-31T13:33:40.647Z,98992.40
2022-12-31T13:36:09.713Z,98996.40
2022-12-31T13:38:42.749Z,98994.60
2022-12-31T13:41:29.926Z,98999.00
2022-12-31T13:44:08.271Z,98999.60
2022-12-31T13:47:06.395Z,99004.20
2022-12-31T13:49:51.720Z,99007.60
2022-12-31T13:52:38.304Z,99009.60
2022-12-31T13:55:17.796Z,99024.20
2022-12-31T13:58:04.449Z,99006.80
2022-12-31T14:00:44.524Z,99011.80
2022-12-31T14:03:49.115Z,99013.00
2022-12-31T14:06:27.981Z,99024.60
2022-12-31T14:08:54.461Z,99024.80
2022-12-31T14:12:17.176Z,99027.00
2022-12-31T14:15:04.632Z,99032.80
2022-12-31T14:18:01.096Z,99032.80
2022-12-31T14:21:01.573Z,99032.40
2022-12-31T14:24:06.333Z,99030.20
2022-12-31T14:26:42.495Z,99036.80
2022-12-31T14:29:14.138Z,99054.40
2022-12-31T14:31:51.131Z,99040.60
2022-12-31T14:34:43.710Z,99045.00
2022-12-31T14:37:41.764Z,99035.80
2022-12-31T14:40:24.473Z,99035.60
2022-12-31T14:43:16.150Z,99033.80
2022-12-31T14:46:10.242Z,99048.80
2022-12-31T14:48:52.937Z,99039.40
2022-12-31T14:51:19.504Z,99047.40
2022-12-31T14:53:53.493Z,99042.20
2022-12-31T14:56:41.069Z,99047.00
2022-12-31T14:59:26.715Z,99036.80
2022-12-31T15:01:54.399Z,99034.40
2022-12-31T15:04:45.128Z,99036.60
2022-12-31T15:07:31.824Z,99048.40
2022-12-31T15:10:48.200Z,99057.80
2022-12-31T15:13:56.229Z,99050.80
2022-12-31T15:16:39.250Z,99051.40
2022-12-31T15:19:18.285Z,99050.80
2022-12-31T15:22:04.948Z,99054.00
2022-12-31T15:24:31.482Z,99051.60
2022-12-31T15:27:00.856Z,99053.60
2022-12-31T15:29:32.461Z,99056.00
2022-12-31T15:32:02.190Z,99043.80
2022-12-31T15:34:34.424Z,99058.00
2022-12-31T15:37:04.272Z,99056.20
2022-12-31T15:39:30.852Z,99061.00
2022-12-31T15:42:36.648Z,99062.00
2022-12-31T15:44:56.339Z,99072.60
2022-12-31T15:47:39.184Z,99074.60
2022-12-31T15:50:13.984Z,99077.60
2022-12-31T15:52:47.371Z,99080.40
2022-12-31T15:55:32.466Z,99085.40
2022-12-31T15:58:04.394Z,99087.20
2022-12-31T16:01:22.724Z,99090.80
2022-12-31T16:03:57.004Z,99098.00
2022-12-31T16:06:23.570Z,99092.80
2022-12-31T16:08:50.196Z,99089.60
2022-12-31T16:11:16.921Z,99093.00
2022-12-31T16:13:49.182Z,99083.20
2022-12-31T16:16:24.088Z,99086.40
2022-12-31T16:18:52.390Z,99082.60
2022-12-31T16:21:23.490Z,99090.60
2022-12-31T16:23:52.137Z,99078.40
2022-12-31T16:26:18.641Z,99070.60
2022-12-31T16:28:47.773Z,99079.40
2022-12-31T16:31:16.932Z,99084.20
2022-12-31T16:33:44.826Z,99089.00
2022-12-31T16:36:22.880Z,99095.20
2022-12-31T16:38:49.643Z,99098.60
2022-12-31T16:41:18.882Z,99099.80
2022-12-31T16:43:48.439Z,99102.60
2022-12-31T16:46:26.574Z,99103.60
2022-12-31T16:49:11.921Z,99103.00
2022-12-31T16:51:38.530Z,99101.20
2022-12-31T16:54:05.130Z,99108.40
2022-12-31T16:56:35.554Z,99112.00
2022-12-31T16:59:11.687Z,99116.80
2022-12-31T17:01:38.243Z,99108.60
2022-12-31T17:04:10.003Z,99111.40
2022-12-31T17:06:36.507Z,99108.00
2022-12-31T17:09:12.157Z,99104.80
2022-12-31T17:12:09.635Z,99102.80
2022-12-31T17:14:48.773Z,99107.00
2022-12-31T17:17:25.087Z,99101.20
2022-12-31T17:19:56.942Z,99091.00
2022-12-31T17:22:41.265Z,99092.60
2022-12-31T17:25:20.546Z,99102.40
2022-12-31T17:28:01.861Z,99093.40
2022-12-31T17:30:34.566Z,99084.00
2022-12-31T17:33:07.531Z,99093.40
2022-12-31T17:35:36.664Z,99093.20
2022-12-31T17:38:35.938Z,99101.00
2022-12-31T17:41:05.239Z,99096.60
2022-12-31T17:43:35.315Z,99097.80
2022-12-31T17:46:03.380Z,99102.60
2022-12-31T17:48:29.965Z,99104.60
2022-12-31T17:50:59.982Z,99106.60
2022-12-31T17:53:26.604Z,99108.60
2022-12-31T17:55:55.616Z,99105.20
2022-12-31T17:58:35.948Z,99119.40
2022-12-31T18:01:05.743Z,99115.80
2022-12-31T18:03:32.593Z,99122.00
2022-12-31T18:05:59.242Z,99122.20
2022-12-31T18:08:25.800Z,99123.80
2022-12-31T18:10:52.805Z,99123.80
2022-12-31T18:13:25.515Z,99116.00
2022-12-31T18:15:52.464Z,99118.80
2022-12-31T18:18:25.451Z,99123.80
2022-12-31T18:20:58.661Z,99126.60
2022-12-31T18:23:40.236Z,99135.40
2022-12-31T18:26:13.271Z,99134.20
2022-12-31T18:28:39.905Z,99134.20
2022-12-31T18:31:09.163Z,99140.40
2022-12-31T18:33:35.798Z,99138.80
2022-12-31T18:36:10.394Z,99148.80
2022-12-31T18:38:37.290Z,99150.80
2022-12-31T18:41:04.109Z,99152.80
2022-12-31T18:43:30.656Z,99143.20
2022-12-31T18:45:57.469Z,99146.40
2022-12-31T18:48:24.063Z,99147.60
2022-12-31T18:50:50.610Z,99151.60
2022-12-31T18:53:22.186Z,99149.80
2022-12-31T18:55:54.752Z,99146.20
2022-12-31T18:58:21.382Z,99145.40
2022-12-31T19:00:48.439Z,99145.60
2022-12-31T19:03:21.043Z,99143.20
2022-12-31T19:05:51.462Z,99144.40
2022-12-31T19:08:22.006Z,99150.20
2022-12-31T19:10:50.548Z,99152.60
2022-12-31T19:13:18.673Z,99153.40
2022-12-31T19:15:52.466Z,99150.40
2022-12-31T19:18:19.182Z,99160.60
2022-12-31T19:20:45.696Z,99156.80
2022-12-31T19:23:19.889Z,99158.80
2022-12-31T19:25:47.372Z,99165.60
2022-12-31T19:28:25.394Z,99166.00
2022-12-31T19:30:52.244Z,99160.20
2022-12-31T19:33:19.117Z,99165.80
2022-12-31T19:35:46.341Z,99168.60
2022-12-31T19:38:23.809Z,99164.80
2022-12-31T19:40:51.670Z,99162.00
2022-12-31T19:43:20.605Z,99166.80
2022-12-31T19:45:47.604Z,99166.40
2022-12-31T19:48:27.196Z,99166.60
2022-12-31T19:50:58.793Z,99176.20
2022-12-31T19:53:26.367Z,99176.40
2022-12-31T19:55:53.008Z,99175.80
2022-12-31T19:58:25.390Z,99177.40
2022-12-31T20:00:57.089Z,99176.80
2022-12-31T20:03:28.734Z,99175.80
2022-12-31T20:06:07.652Z,99167.60
2022-12-31T20:08:35.961Z,99157.80
2022-12-31T20:11:18.148Z,99147.00
2022-12-31T20:13:45.461Z,99152.80
2022-12-31T20:16:16.310Z,99144.20
2022-12-31T20:18:44.338Z,99147.80
2022-12-31T20:21:17.209Z,99146.20
2022-12-31T20:23:43.957Z,99150.80
2022-12-31T20:26:10.899Z,99149.20
2022-12-31T20:28:37.593Z,99143.20
2022-12-31T20:31:09.651Z,99142.40
2022-12-31T20:33:36.282Z,99143.80
2022-12-31T20:36:08.121Z,99137.60
2022-12-31T20:38:34.992Z,99134.00
2022-12-31T20:41:06.761Z,99142.80
2022-12-31T20:43:33.645Z,99147.20
2022-12-31T20:46:09.465Z,99140.80
2022-12-31T20:48:40.986Z,99141.40
2022-12-31T20:51:07.609Z,99154.80
2022-12-31T20:53:34.075Z,99152.20
2022-12-31T20:56:08.107Z,99157.60
2022-12-31T20:58:34.896Z,99153.80
2022-12-31T21:01:03.356Z,99159.60
2022-12-31T21:04:03.776Z,99168.20
2022-12-31T21:06:16.538Z,99166.20
2022-12-31T21:08:43.434Z,99168.20
2022-12-31T21:11:28.715Z,99163.20
2022-12-31T21:13:56.124Z,99173.20
2022-12-31T21:16:22.973Z,99169.00
2022-12-31T21:18:49.645Z,99162.60
2022-12-31T21:21:16.329Z,99159.00
2022-12-31T21:23:42.694Z,99155.40
2022-12-31T21:26:09.448Z,99149.00
2022-12-31T21:28:36.066Z,99159.20
2022-12-31T21:31:05.006Z,99159.60
2022-12-31T21:33:35.004Z,99153.40
2022-12-31T21:36:04.744Z,99160.00
2022-12-31T21:38:31.885Z,99160.40
2022-12-31T21:41:03.127Z,99163.60
2022-12-31T21:43:29.651Z,99162.80
2022-12-31T21:46:04.352Z,99162.40
2022-12-31T21:48:31.308Z,99166.00
2022-12-31T21:51:07.771Z,99171.80
2022-12-31T21:53:37.182Z,99175.80
2022-12-31T21:56:07.851Z,99177.40
2022-12-31T21:58:43.075Z,99177.00
2022-12-31T22:01:39.882Z,99180.00
2022-12-31T22:04:12.938Z,99171.00
2022-12-31T22:06:48.820Z,99172.20
2022-12-31T22:09:15.438Z,99167.40
2022-12-31T22:11:42.116Z,99169.00
2022-12-31T22:14:09.260Z,99165.40
2022-12-31T22:16:36.044Z,99171.20
2022-12-31T22:19:02.773Z,99169.00
2022-12-31T22:21:29.185Z,99172.60
2022-12-31T22:23:57.966Z,99165.40
2022-12-31T22:26:27.576Z,99169.20
2022-12-31T22:28:58.488Z,99168.60
2022-12-31T22:31:26.936Z,99174.00
2022-12-31T22:33:53.934Z,99178.00
2022-12-31T22:36:22.100Z,99182.00
2022-12-31T22:38:50.171Z,99181.00
2022-12-31T22:41:19.187Z,99182.20
2022-12-31T22:43:55.960Z,99179.20
2022-12-31T22:46:27.923Z,99172.20
2022-12-31T22:48:57.720Z,99178.00
2022-12-31T22:51:24.266Z,99180.80
2022-12-31T22:53:50.912Z,99188.00
2022-12-31T22:56:18.097Z,99181.80
2022-12-31T22:58:44.799Z,99184.60
2022-12-31T23:01:22.873Z,99187.00
2022-12-31T23:03:51.213Z,99190.40
2022-12-31T23:06:18.802Z,99193.60
2022-12-31T23:09:05.230Z,99192.60
2022-12-31T23:11:33.494Z,99189.60
2022-12-31T23:14:18.797Z,99190.20
2022-12-31T23:17:29.790Z,99191.60
2022-12-31T23:20:09.149Z,99191.20
2022-12-31T23:22:54.549Z,99192.00
2022-12-31T23:25:21.088Z,99187.80
2022-12-31T23:27:47.621Z,99193.00
2022-12-31T23:30:14.192Z,99193.20
2022-12-31T23:32:40.727Z,99186.60
2022-12-31T23:35:10.077Z,99185.60
2022-12-31T23:37:37.037Z,99185.40
2022-12-31T23:40:04.357Z,99183.20
2022-12-31T23:42:30.716Z,99180.40
2022-12-31T23:44:57.312Z,99180.80
2022-12-31T23:47:24.012Z,99173.80
2022-12-31T23:49:50.605Z,99180.80
2022-12-31T23:52:17.245Z,99184.60
2022-12-31T23:54:43.816Z,99193.20
2022-12-31T23:57:10.420Z,99201.60
2022-12-31T23:59:36.909Z,99205.60
